createdAt,value
2022-09-12T00:01:26.967Z,22.00
2022-09-12T00:06:32.042Z,21.90
2022-09-12T00:11:38.370Z,21.90
2022-09-12T00:16:41.630Z,21.90
2022-09-12T00:21:44.683Z,21.90
2022-09-12T00:26:49.388Z,21.90
2022-09-12T00:31:52.602Z,21.90
2022-09-12T00:36:55.558Z,21.80
2022-09-12T00:41:59.887Z,21.80
2022-09-12T00:47:06.876Z,21.80
2022-09-12T00:52:13.003Z,21.80
2022-09-12T00:57:18.975Z,21.80
2022-09-12T01:02:22.940Z,21.70
2022-09-12T01:07:26.007Z,21.70
2022-09-12T01:12:31.127Z,21.70
2022-09-12T01:17:48.829Z,21.70
2022-09-12T01:23:23.550Z,21.70
2022-09-12T01:28:46.702Z,21.70
2022-09-12T01:34:02.189Z,21.60
2022-09-12T01:39:09.549Z,21.60
2022-09-12T01:44:22.788Z,21.60
2022-09-12T01:49:32.919Z,21.60
2022-09-12T01:54:40.990Z,21.60
2022-09-12T01:59:48.324Z,21.60
2022-09-12T02:04:55.915Z,21.60
2022-09-12T02:10:04.747Z,21.50
2022-09-12T02:15:10.714Z,21.50
2022-09-12T02:20:37.501Z,21.50
2022-09-12T02:25:47.344Z,21.50
2022-09-12T02:31:00.700Z,21.50
2022-09-12T02:36:14.384Z,21.50
2022-09-12T02:41:20.636Z,21.50
2022-09-12T02:46:27.302Z,21.40
2022-09-12T02:51:32.930Z,21.40
2022-09-12T02:56:36.215Z,21.40
2022-09-12T03:01:57.509Z,21.40
2022-09-12T03:07:13.832Z,21.40
2022-09-12T03:12:32.850Z,21.30
2022-09-12T03:17:44.962Z,21.40
2022-09-12T03:22:55.662Z,21.30
2022-09-12T03:28:06.143Z,21.40
2022-09-12T03:33:12.695Z,21.40
2022-09-12T03:38:17.191Z,21.40
2022-09-12T03:43:20.447Z,21.30
2022-09-12T03:48:23.380Z,21.30
2022-09-12T03:53:27.764Z,21.30
2022-09-12T03:58:32.235Z,21.30
2022-09-12T04:03:35.172Z,21.30
2022-09-12T04:08:40.115Z,21.30
2022-09-12T04:13:44.723Z,21.20
2022-09-12T04:18:48.322Z,21.20
2022-09-12T04:23:53.160Z,21.20
2022-09-12T04:28:57.721Z,21.20
2022-09-12T04:34:02.121Z,21.20
2022-09-12T04:39:07.715Z,21.20
2022-09-12T04:44:15.296Z,21.20
2022-09-12T04:49:19.355Z,21.10
2022-09-12T04:54:23.882Z,21.20
2022-09-12T04:59:27.786Z,21.10
2022-09-12T05:04:31.574Z,21.20
2022-09-12T05:09:35.871Z,21.20
2022-09-12T05:14:39.255Z,21.20
2022-09-12T05:19:42.444Z,21.20
2022-09-12T05:24:50.577Z,21.30
2022-09-12T05:29:53.773Z,21.40
2022-09-12T05:34:56.720Z,21.50
2022-09-12T05:40:05.032Z,21.60
2022-09-12T05:45:08.734Z,21.70
2022-09-12T05:50:12.359Z,21.80
2022-09-12T05:55:17.119Z,21.90
2022-09-12T06:00:20.636Z,22.00
2022-09-12T06:05:24.855Z,22.10
2022-09-12T06:10:29.713Z,22.20
2022-09-12T06:15:33.929Z,22.40
2022-09-12T06:20:37.885Z,22.50
2022-09-12T06:25:48.078Z,22.70
2022-09-12T06:30:51.150Z,22.50
2022-09-12T06:35:54.114Z,22.30
2022-09-12T06:40:58.673Z,22.20
2022-09-12T06:46:01.869Z,22.10
2022-09-12T06:51:07.219Z,22.00
2022-09-12T06:56:13.935Z,22.00
2022-09-12T07:01:18.214Z,22.00
2022-09-12T07:06:24.105Z,22.00
2022-09-12T07:11:31.823Z,22.00
2022-09-12T07:16:36.648Z,22.00
2022-09-12T07:21:40.947Z,21.90
2022-09-12T07:26:45.382Z,21.90
2022-09-12T07:31:48.373Z,21.90
2022-09-12T07:36:51.427Z,21.90
2022-09-12T07:41:56.082Z,22.00
2022-09-12T07:46:59.239Z,22.10
2022-09-12T07:52:02.396Z,22.10
2022-09-12T07:57:06.944Z,22.00
2022-09-12T08:02:17.188Z,21.90
2022-09-12T08:07:20.781Z,21.90
2022-09-12T08:12:25.095Z,21.90
2022-09-12T08:17:28.876Z,22.00
2022-09-12T08:22:32.247Z,22.20
2022-09-12T08:27:36.991Z,22.30
2022-09-12T08:32:39.962Z,22.40
2022-09-12T08:37:42.893Z,22.50
2022-09-12T08:42:59.735Z,22.50
2022-09-12T08:48:05.779Z,22.60
2022-09-12T08:53:17.461Z,22.50
2022-09-12T08:58:23.683Z,22.60
2022-09-12T09:03:47.350Z,22.60
2022-09-12T09:09:00.608Z,22.50
2022-09-12T09:14:38.273Z,22.60
2022-09-12T09:19:50.857Z,22.60
2022-09-12T09:25:00.652Z,22.60
2022-09-12T09:30:05.817Z,22.70
2022-09-12T09:35:16.798Z,22.70
2022-09-12T09:40:25.467Z,22.70
2022-09-12T09:45:30.007Z,22.70
2022-09-12T09:50:33.710Z,22.80
2022-09-12T09:55:41.898Z,22.80
2022-09-12T10:00:47.770Z,22.80
2022-09-12T10:05:52.951Z,22.80
2022-09-12T10:10:58.326Z,22.80
2022-09-12T10:16:05.303Z,22.80
2022-09-12T10:21:17.423Z,22.80
2022-09-12T10:26:22.318Z,22.80
2022-09-12T10:31:29.930Z,22.80
2022-09-12T10:36:38.466Z,22.90
2022-09-12T10:41:42.886Z,22.90
2022-09-12T10:46:47.315Z,22.90
2022-09-12T10:51:51.144Z,22.90
2022-09-12T10:57:10.843Z,22.90
2022-09-12T11:02:29.001Z,22.90
2022-09-12T11:07:42.890Z,22.90
2022-09-12T11:12:53.539Z,22.90
2022-09-12T11:18:07.857Z,22.90
2022-09-12T11:23:46.465Z,22.90
2022-09-12T11:28:57.342Z,22.90
2022-09-12T11:34:09.530Z,22.90
2022-09-12T11:39:16.298Z,22.90
2022-09-12T11:44:24.389Z,22.90
2022-09-12T11:49:37.153Z,22.90
2022-09-12T11:54:44.694Z,22.90
2022-09-12T11:59:53.777Z,22.90
2022-09-12T12:05:20.541Z,22.90
2022-09-12T12:10:26.976Z,22.90
2022-09-12T12:15:31.790Z,22.90
2022-09-12T12:20:36.584Z,22.90
2022-09-12T12:25:53.880Z,22.90
2022-09-12T12:31:05.464Z,22.90
2022-09-12T12:36:11.724Z,23.00
2022-09-12T12:41:43.991Z,22.90
2022-09-12T12:47:15.651Z,22.90
2022-09-12T12:52:20.479Z,22.90
2022-09-12T12:57:55.508Z,22.90
2022-09-12T13:03:02.027Z,22.90
2022-09-12T13:08:11.134Z,23.00
2022-09-12T13:13:24.802Z,23.00
2022-09-12T13:18:31.048Z,22.90
2022-09-12T13:23:35.611Z,22.90
2022-09-12T13:28:38.647Z,22.90
2022-09-12T13:33:44.935Z,22.90
2022-09-12T13:39:06.999Z,22.90
2022-09-12T13:44:13.196Z,22.90
2022-09-12T13:49:22.043Z,22.90
2022-09-12T13:54:27.286Z,22.90
2022-09-12T13:59:38.515Z,22.90
2022-09-12T14:04:58.708Z,22.90
2022-09-12T14:10:04.818Z,22.90
2022-09-12T14:15:16.865Z,22.90
2022-09-12T14:20:23.332Z,22.90
2022-09-12T14:25:29.606Z,23.00
2022-09-12T14:30:35.094Z,23.00
2022-09-12T14:35:43.148Z,23.00
2022-09-12T14:40:50.387Z,23.00
2022-09-12T14:45:55.446Z,23.00
2022-09-12T14:50:58.969Z,23.00
2022-09-12T14:56:10.519Z,23.00
2022-09-12T15:01:25.937Z,23.00
2022-09-12T15:06:30.679Z,23.00
2022-09-12T15:11:35.410Z,23.00
2022-09-12T15:16:38.402Z,23.00
2022-09-12T15:21:41.387Z,23.00
2022-09-12T15:26:45.719Z,23.00
2022-09-12T15:31:51.649Z,23.00
2022-09-12T15:36:54.599Z,23.00
2022-09-12T15:41:58.896Z,22.90
2022-09-12T15:47:02.006Z,22.90
2022-09-12T15:52:05.011Z,23.00
2022-09-12T15:57:09.560Z,23.00
2022-09-12T16:02:13.224Z,22.90
2022-09-12T16:07:16.200Z,23.00
2022-09-12T16:12:20.511Z,22.90
2022-09-12T16:17:23.460Z,22.90
2022-09-12T16:22:26.417Z,22.90
2022-09-12T16:27:30.785Z,22.90
2022-09-12T16:32:33.916Z,22.90
2022-09-12T16:37:37.113Z,22.90
2022-09-12T16:42:43.737Z,22.90
2022-09-12T16:47:46.898Z,22.90
2022-09-12T16:52:49.845Z,22.90
2022-09-12T16:57:54.190Z,22.90
2022-09-12T17:02:57.221Z,22.80
2022-09-12T17:08:00.640Z,22.80
2022-09-12T17:13:04.949Z,22.80
2022-09-12T17:18:07.909Z,22.70
2022-09-12T17:23:10.963Z,22.70
2022-09-12T17:28:15.634Z,22.70
2022-09-12T17:33:18.628Z,22.60
2022-09-12T17:38:25.271Z,22.60
2022-09-12T17:43:29.942Z,22.50
2022-09-12T17:48:33.460Z,22.50
2022-09-12T17:53:36.446Z,22.30
2022-09-12T17:58:40.970Z,22.30
2022-09-12T18:03:43.905Z,22.20
2022-09-12T18:08:46.862Z,22.10
2022-09-12T18:13:51.372Z,22.00
2022-09-12T18:18:54.386Z,22.00
2022-09-12T18:23:58.983Z,21.90
2022-09-12T18:29:03.327Z,21.70
2022-09-12T18:34:12.509Z,21.70
2022-09-12T18:39:15.782Z,21.60
2022-09-12T18:44:20.264Z,21.60
2022-09-12T18:49:23.607Z,21.70
2022-09-12T18:54:26.687Z,21.80
2022-09-12T18:59:31.185Z,21.90
2022-09-12T19:04:34.238Z,21.90
2022-09-12T19:09:37.258Z,21.90
2022-09-12T19:14:41.664Z,22.00
2022-09-12T19:19:44.676Z,22.00
2022-09-12T19:24:47.763Z,22.10
2022-09-12T19:29:52.063Z,22.10
2022-09-12T19:34:55.087Z,22.20
2022-09-12T19:39:58.128Z,22.20
2022-09-12T19:45:02.516Z,22.20
2022-09-12T19:50:06.674Z,22.20
2022-09-12T19:55:10.443Z,22.20
2022-09-12T20:00:15.688Z,22.20
2022-09-12T20:05:18.674Z,22.20
2022-09-12T20:10:21.784Z,22.20
2022-09-12T20:15:26.432Z,22.20
2022-09-12T20:20:29.394Z,22.20
2022-09-12T20:25:32.592Z,22.20
2022-09-12T20:30:36.932Z,22.20
2022-09-12T20:35:39.916Z,22.20
2022-09-12T20:40:49.215Z,22.20
2022-09-12T20:45:53.575Z,22.20
2022-09-12T20:50:59.635Z,22.20
2022-09-12T20:56:03.656Z,22.20
2022-09-12T21:01:12.344Z,22.20
2022-09-12T21:06:17.372Z,22.20
2022-09-12T21:11:21.446Z,22.20
2022-09-12T21:16:26.239Z,22.20
2022-09-12T21:21:29.195Z,22.20
2022-09-12T21:26:32.411Z,22.20
2022-09-12T21:31:36.960Z,22.20
2022-09-12T21:36:39.991Z,22.20
2022-09-12T21:41:42.964Z,22.20
2022-09-12T21:46:47.287Z,22.10
2022-09-12T21:51:52.007Z,22.10
2022-09-12T21:56:54.975Z,22.20
2022-09-12T22:01:59.598Z,22.20
2022-09-12T22:07:02.632Z,22.10
2022-09-12T22:12:05.874Z,22.10
2022-09-12T22:17:11.368Z,22.10
2022-09-12T22:22:31.695Z,22.10
2022-09-12T22:27:34.667Z,22.10
2022-09-12T22:32:38.965Z,22.10
2022-09-12T22:37:42.239Z,22.00
2022-09-12T22:42:45.200Z,22.00
2022-09-12T22:47:49.544Z,22.00
2022-09-12T22:52:53.814Z,22.00
2022-09-12T22:57:56.761Z,22.00
2022-09-12T23:03:01.599Z,22.00
2022-09-12T23:08:05.596Z,21.90
2022-09-12T23:13:08.543Z,21.90
2022-09-12T23:18:12.842Z,21.90
2022-09-12T23:23:15.814Z,21.90
2022-09-12T23:28:18.768Z,21.90
2022-09-12T23:33:23.210Z,21.90
2022-09-12T23:38:26.256Z,21.90
2022-09-12T23:43:29.570Z,21.90
2022-09-12T23:48:34.740Z,21.90
2022-09-12T23:53:37.732Z,21.80
2022-09-12T23:58:40.677Z,21.80
